createdAt,value
2023-04-01T00:01:17.238Z,7.50
2023-04-01T00:03:45.064Z,7.50
2023-04-01T00:06:17.571Z,7.40
2023-04-01T00:08:45.267Z,7.40
2023-04-01T00:11:11.969Z,7.40
2023-04-01T00:13:38.677Z,7.40
2023-04-01T00:16:13.831Z,7.40
2023-04-01T00:18:48.125Z,7.40
2023-04-01T00:21:14.818Z,7.40
2023-04-01T00:23:41.549Z,7.40
2023-04-01T00:26:08.529Z,7.40
2023-04-01T00:28:36.881Z,7.30
2023-04-01T00:31:07.904Z,7.30
2023-04-01T00:33:34.626Z,7.30
2023-04-01T00:36:15.750Z,7.20
2023-04-01T00:38:43.427Z,7.20
2023-04-01T00:41:15.795Z,7.20
2023-04-01T00:43:44.637Z,7.20
2023-04-01T00:46:11.570Z,7.20
2023-04-01T00:48:42.713Z,7.20
2023-04-01T00:51:15.090Z,7.20
2023-04-01T00:53:46.181Z,7.10
2023-04-01T00:56:23.365Z,7.20
2023-04-01T00:58:55.158Z,7.20
2023-04-01T01:01:23.639Z,7.20
2023-04-01T01:03:50.557Z,7.20
2023-04-01T01:06:39.993Z,7.20
2023-04-01T01:09:24.332Z,7.20
2023-04-01T01:11:59.817Z,7.30
2023-04-01T01:14:52.512Z,7.30
2023-04-01T01:17:55.839Z,7.40
2023-04-01T01:20:56.178Z,7.40
2023-04-01T01:23:47.627Z,7.50
2023-04-01T01:26:38.757Z,7.50
2023-04-01T01:29:46.254Z,7.50
2023-04-01T01:32:23.615Z,7.50
2023-04-01T01:35:15.507Z,7.50
2023-04-01T01:37:44.081Z,7.50
2023-04-01T01:40:13.653Z,7.50
2023-04-01T01:42:45.498Z,7.50
2023-04-01T01:45:15.433Z,7.50
2023-04-01T01:47:43.772Z,7.50
2023-04-01T01:50:11.966Z,7.50
2023-04-01T01:52:38.577Z,7.50
2023-04-01T01:55:44.853Z,7.50
2023-04-01T01:58:15.585Z,7.50
2023-04-01T02:00:46.116Z,7.60
2023-04-01T02:03:14.571Z,7.60
2023-04-01T02:05:41.675Z,7.60
2023-04-01T02:08:14.628Z,7.60
2023-04-01T02:10:46.362Z,7.60
2023-04-01T02:13:36.655Z,7.60
2023-04-01T02:16:08.452Z,7.60
2023-04-01T02:18:38.272Z,7.60
2023-04-01T02:21:06.637Z,7.60
2023-04-01T02:23:36.522Z,7.60
2023-04-01T02:26:06.642Z,7.60
2023-04-01T02:28:35.370Z,7.50
2023-04-01T02:31:03.560Z,7.50
2023-04-01T02:33:31.794Z,7.50
2023-04-01T02:35:59.283Z,7.50
2023-04-01T02:38:25.954Z,7.50
2023-04-01T02:41:01.430Z,7.50
2023-04-01T02:43:29.055Z,7.50
2023-04-01T02:45:55.955Z,7.50
2023-04-01T02:48:22.729Z,7.50
2023-04-01T02:50:49.425Z,7.50
2023-04-01T02:53:16.453Z,7.40
2023-04-01T02:55:43.217Z,7.40
2023-04-01T02:58:09.853Z,7.40
2023-04-01T03:00:36.622Z,7.40
2023-04-01T03:03:03.790Z,7.40
2023-04-01T03:05:31.202Z,7.40
2023-04-01T03:07:58.325Z,7.40
2023-04-01T03:10:24.979Z,7.40
2023-04-01T03:12:51.576Z,7.30
2023-04-01T03:15:18.257Z,7.30
2023-04-01T03:17:45.012Z,7.40
2023-04-01T03:20:12.533Z,7.30
2023-04-01T03:22:42.204Z,7.40
2023-04-01T03:25:10.645Z,7.30
2023-04-01T03:27:37.279Z,7.20
2023-04-01T03:30:05.958Z,7.20
2023-04-01T03:32:32.972Z,7.20
2023-04-01T03:34:59.670Z,7.10
2023-04-01T03:37:26.414Z,7.10
2023-04-01T03:39:53.144Z,7.10
2023-04-01T03:42:19.714Z,7.00
2023-04-01T03:44:46.419Z,7.00
2023-04-01T03:47:13.071Z,7.00
2023-04-01T03:49:39.721Z,7.00
2023-04-01T03:52:10.545Z,7.00
2023-04-01T03:54:37.486Z,6.90
2023-04-01T03:57:04.148Z,6.90
2023-04-01T03:59:31.199Z,6.90
2023-04-01T04:01:57.836Z,6.90
2023-04-01T04:04:24.746Z,6.90
2023-04-01T04:06:52.131Z,6.90
2023-04-01T04:09:18.750Z,6.80
2023-04-01T04:11:45.433Z,6.80
2023-04-01T04:14:12.082Z,6.80
2023-04-01T04:16:38.959Z,6.90
2023-04-01T04:19:05.849Z,6.90
2023-04-01T04:21:32.657Z,6.90
2023-04-01T04:24:03.408Z,6.90
2023-04-01T04:26:30.337Z,7.00
2023-04-01T04:28:57.064Z,7.00
2023-04-01T04:31:25.465Z,7.00
2023-04-01T04:33:52.714Z,7.00
2023-04-01T04:36:20.568Z,7.00
2023-04-01T04:38:47.454Z,7.00
2023-04-01T04:41:16.093Z,7.10
2023-04-01T04:43:43.194Z,7.10
2023-04-01T04:46:11.171Z,7.20
2023-04-01T04:48:37.928Z,7.20
2023-04-01T04:51:04.656Z,7.20
2023-04-01T04:53:31.329Z,7.20
2023-04-01T04:55:57.921Z,7.20
2023-04-01T04:58:24.544Z,7.20
2023-04-01T05:00:51.343Z,7.20
2023-04-01T05:03:18.103Z,7.20
2023-04-01T05:05:54.719Z,7.30
2023-04-01T05:08:21.558Z,7.40
2023-04-01T05:10:48.202Z,7.40
2023-04-01T05:13:14.923Z,7.40
2023-04-01T05:15:41.753Z,7.50
2023-04-01T05:18:08.523Z,7.50
2023-04-01T05:20:35.242Z,7.60
2023-04-01T05:23:02.034Z,7.60
2023-04-01T05:25:28.737Z,7.60
2023-04-01T05:27:55.456Z,7.60
2023-04-01T05:30:22.365Z,7.60
2023-04-01T05:32:49.160Z,7.60
2023-04-01T05:35:16.062Z,7.60
2023-04-01T05:37:42.725Z,7.60
2023-04-01T05:40:10.142Z,7.60
2023-04-01T05:42:38.269Z,7.60
2023-04-01T05:45:06.066Z,7.60
2023-04-01T05:47:32.790Z,7.60
2023-04-01T05:49:59.482Z,7.60
2023-04-01T05:52:26.337Z,7.70
2023-04-01T05:54:53.036Z,7.70
2023-04-01T05:57:19.833Z,7.70
2023-04-01T05:59:46.816Z,7.70
2023-04-01T06:02:13.644Z,7.70
2023-04-01T06:04:41.815Z,7.70
2023-04-01T06:07:16.442Z,7.70
2023-04-01T06:09:44.004Z,7.80
2023-04-01T06:12:57.973Z,7.80
2023-04-01T06:15:52.519Z,7.80
2023-04-01T06:18:52.581Z,7.80
2023-04-01T06:21:54.332Z,7.80
2023-04-01T06:24:43.862Z,7.90
2023-04-01T06:28:12.794Z,8.00
2023-04-01T06:31:04.522Z,8.00
2023-04-01T06:33:59.882Z,8.00
2023-04-01T06:36:45.261Z,8.10
2023-04-01T06:39:33.660Z,8.10
2023-04-01T06:42:20.178Z,8.10
2023-04-01T06:45:28.708Z,8.20
2023-04-01T06:48:18.797Z,8.20
2023-04-01T06:51:22.373Z,8.20
2023-04-01T06:54:24.571Z,8.30
2023-04-01T06:56:58.272Z,8.40
2023-04-01T06:59:30.968Z,8.50
2023-04-01T07:02:25.407Z,8.60
2023-04-01T07:04:53.714Z,8.60
2023-04-01T07:07:43.053Z,8.60
2023-04-01T07:10:33.424Z,8.70
2023-04-01T07:13:03.391Z,8.70
2023-04-01T07:15:39.355Z,8.60
2023-04-01T07:18:43.561Z,8.60
2023-04-01T07:21:24.565Z,8.60
2023-04-01T07:23:53.093Z,8.70
2023-04-01T07:26:25.611Z,8.80
2023-04-01T07:28:53.955Z,8.90
2023-04-01T07:31:29.490Z,8.90
2023-04-01T07:34:25.900Z,9.00
2023-04-01T07:39:36.036Z,9.10
2023-04-01T08:37:13.245Z,9.20
2023-04-01T08:39:46.833Z,10.00
2023-04-01T08:53:08.089Z,10.10
2023-04-01T08:55:43.136Z,10.30
2023-04-01T08:58:38.339Z,10.40
2023-04-01T09:01:20.067Z,10.30
2023-04-01T09:04:14.355Z,10.30
2023-04-01T09:07:03.398Z,10.30
2023-04-01T09:15:05.315Z,10.50
2023-04-01T09:26:27.073Z,10.90
2023-04-01T09:29:02.749Z,10.80
2023-04-01T09:31:54.731Z,10.90
2023-04-01T09:34:21.364Z,11.00
2023-04-01T10:54:56.690Z,11.20
2023-04-01T10:58:11.863Z,10.90
2023-04-01T11:00:47.541Z,10.70
2023-04-01T11:03:51.702Z,10.60
2023-04-01T11:11:46.196Z,10.40
2023-04-01T11:14:25.053Z,9.70
2023-04-01T11:17:29.855Z,9.80
2023-04-01T11:20:14.605Z,9.80
2023-04-01T11:22:50.380Z,9.80
2023-04-01T11:25:54.579Z,9.90
2023-04-01T11:28:21.159Z,9.90
2023-04-01T11:31:09.664Z,9.90
2023-04-01T11:33:43.335Z,9.90
2023-04-01T11:36:28.478Z,9.90
2023-04-01T11:39:11.279Z,9.90
2023-04-01T11:41:40.946Z,9.80
2023-04-01T11:44:16.865Z,9.90
2023-04-01T11:47:21.029Z,9.80
2023-04-01T11:50:21.489Z,9.60
2023-04-01T11:53:09.075Z,9.30
2023-04-01T12:01:00.807Z,9.00
2023-04-01T12:03:27.468Z,8.60
2023-04-01T12:06:16.047Z,8.60
2023-04-01T12:09:12.921Z,8.50
2023-04-01T12:11:43.119Z,8.40
2023-04-01T12:14:20.533Z,8.40
2023-04-01T12:17:14.261Z,8.40
2023-04-01T12:20:03.329Z,8.50
2023-04-01T12:22:32.557Z,8.30
2023-04-01T12:25:36.496Z,8.30
2023-04-01T12:28:07.629Z,8.30
2023-04-01T12:30:54.219Z,8.20
2023-04-01T12:33:39.429Z,8.20
2023-04-01T12:36:26.466Z,8.20
2023-04-01T12:39:08.754Z,8.20
2023-04-01T12:42:31.264Z,8.20
2023-04-01T12:45:24.558Z,8.20
2023-04-01T12:48:20.606Z,8.30
2023-04-01T12:50:53.165Z,8.20
2023-04-01T12:53:45.273Z,8.20
2023-04-01T12:56:56.182Z,8.20
2023-04-01T12:59:37.207Z,8.30
2023-04-01T13:02:17.023Z,8.20
2023-04-01T13:05:06.776Z,8.30
2023-04-01T13:08:08.258Z,8.30
2023-04-01T13:10:46.800Z,8.20
2023-04-01T13:13:32.308Z,8.20
2023-04-01T13:16:34.479Z,8.30
2023-04-01T13:19:18.671Z,8.30
2023-04-01T13:22:11.503Z,8.20
2023-04-01T13:24:51.286Z,8.20
2023-04-01T13:27:57.479Z,8.20
2023-04-01T13:30:30.946Z,8.20
2023-04-01T13:33:02.142Z,8.20
2023-04-01T13:35:40.770Z,8.10
2023-04-01T13:38:33.285Z,8.20
2023-04-01T13:41:21.972Z,8.10
2023-04-01T13:44:17.683Z,8.10
2023-04-01T13:47:05.186Z,8.00
2023-04-01T13:49:50.638Z,8.10
2023-04-01T13:52:50.730Z,8.10
2023-04-01T13:55:27.970Z,8.20
2023-04-01T13:58:36.870Z,8.20
2023-04-01T14:01:31.984Z,8.30
2023-04-01T14:04:07.594Z,8.40
2023-04-01T14:06:56.398Z,8.50
2023-04-01T14:09:50.903Z,8.40
2023-04-01T14:12:28.599Z,8.50
2023-04-01T14:15:10.486Z,8.50
2023-04-01T14:17:51.640Z,8.50
2023-04-01T14:20:35.356Z,8.60
2023-04-01T14:23:13.894Z,8.60
2023-04-01T14:26:06.717Z,8.70
2023-04-01T14:28:39.228Z,8.80
2023-04-01T14:31:36.527Z,8.80
2023-04-01T14:34:21.664Z,8.80
2023-04-01T14:36:54.098Z,9.00
2023-04-01T14:39:39.570Z,9.10
2023-04-01T14:42:15.398Z,9.10
2023-04-01T14:45:09.606Z,9.20
2023-04-01T14:47:56.092Z,8.90
2023-04-01T14:50:24.148Z,9.00
2023-04-01T14:52:58.731Z,8.90
2023-04-01T14:55:34.142Z,8.90
2023-04-01T14:58:08.768Z,9.00
2023-04-01T15:00:42.948Z,9.00
2023-04-01T15:03:35.458Z,9.00
2023-04-01T15:06:29.695Z,8.80
2023-04-01T15:09:41.808Z,8.80
2023-04-01T15:12:30.662Z,8.80
2023-04-01T15:15:03.249Z,8.70
2023-04-01T15:17:53.369Z,8.70
2023-04-01T15:20:32.555Z,8.80
2023-04-01T15:23:34.855Z,8.80
2023-04-01T15:26:23.152Z,8.80
2023-04-01T15:29:15.928Z,8.90
2023-04-01T15:31:53.981Z,9.00
2023-04-01T15:34:55.052Z,9.10
2023-04-01T15:37:39.526Z,9.20
2023-04-01T15:40:23.545Z,9.30
2023-04-01T15:43:15.126Z,9.30
2023-04-01T15:46:03.879Z,9.30
2023-04-01T15:48:45.824Z,9.30
2023-04-01T15:51:19.888Z,9.40
2023-04-01T15:53:55.930Z,9.60
2023-04-01T15:56:45.719Z,9.60
2023-04-01T15:59:15.429Z,9.70
2023-04-01T16:01:49.026Z,9.70
2023-04-01T16:04:37.428Z,9.70
2023-04-01T16:07:38.515Z,9.70
2023-04-01T16:10:27.961Z,9.80
2023-04-01T16:13:25.710Z,9.70
2023-04-01T16:16:37.613Z,9.80
2023-04-01T16:19:48.574Z,9.90
2023-04-01T16:22:22.651Z,9.80
2023-04-01T16:25:18.571Z,9.70
2023-04-01T16:28:10.658Z,9.70
2023-04-01T16:30:44.992Z,9.70
2023-04-01T16:33:24.566Z,9.60
2023-04-01T16:36:06.306Z,9.60
2023-04-01T16:38:53.654Z,9.60
2023-04-01T16:41:26.953Z,9.40
2023-04-01T16:44:22.804Z,9.50
2023-04-01T16:46:52.388Z,9.50
2023-04-01T17:21:20.205Z,9.40
2023-04-01T17:23:53.136Z,9.20
2023-04-01T17:26:29.270Z,9.10
2023-04-01T17:29:18.241Z,9.10
2023-04-01T17:32:13.948Z,9.10
2023-04-01T17:35:04.724Z,9.10
2023-04-01T17:38:01.260Z,9.10
2023-04-01T17:40:35.877Z,9.10
2023-04-01T17:43:08.704Z,9.10
2023-04-01T17:46:11.285Z,9.10
2023-04-01T17:48:59.156Z,9.10
2023-04-01T17:51:38.039Z,9.10
2023-04-01T17:54:16.798Z,9.10
2023-04-01T17:56:56.883Z,9.00
2023-04-01T17:59:45.585Z,9.00
2023-04-01T18:02:41.713Z,9.00
2023-04-01T18:05:21.805Z,9.00
2023-04-01T18:08:07.024Z,9.00
2023-04-01T18:10:49.149Z,9.00
2023-04-01T18:13:47.161Z,9.00
2023-04-01T18:16:42.683Z,9.10
2023-04-01T18:19:25.474Z,9.10
2023-04-01T18:21:56.769Z,9.10
2023-04-01T18:24:31.501Z,9.10
2023-04-01T18:27:12.977Z,9.10
2023-04-01T18:29:42.652Z,9.10
2023-04-01T18:32:12.461Z,9.10
2023-04-01T18:34:48.912Z,9.00
2023-04-01T18:37:24.271Z,8.90
2023-04-01T18:40:01.512Z,8.80
2023-04-01T18:45:21.984Z,8.80
2023-04-01T18:48:07.309Z,8.80
2023-04-01T18:50:57.108Z,8.70
2023-04-01T18:53:47.704Z,8.80
2023-04-01T18:56:37.421Z,8.70
2023-04-01T18:59:18.683Z,8.80
2023-04-01T19:02:03.640Z,8.80
2023-04-01T19:04:46.034Z,8.70
2023-04-01T19:07:42.748Z,8.60
2023-04-01T19:10:36.799Z,8.70
2023-04-01T19:13:28.408Z,8.70
2023-04-01T19:16:16.593Z,8.60
2023-04-01T19:18:51.165Z,8.50
2023-04-01T19:21:44.443Z,8.50
2023-04-01T19:24:26.054Z,8.40
2023-04-01T19:27:39.817Z,8.50
2023-04-01T19:35:47.235Z,8.40
2023-04-01T19:38:41.174Z,8.30
2023-04-01T19:41:49.379Z,8.20
2023-04-01T19:44:48.160Z,8.20
2023-04-01T19:47:40.954Z,8.10
2023-04-01T19:50:37.902Z,8.10
2023-04-01T19:53:18.990Z,8.10
2023-04-01T19:55:50.500Z,8.00
2023-04-01T19:58:20.137Z,8.10
2023-04-01T20:00:56.050Z,8.00
2023-04-01T20:03:34.811Z,7.90
2023-04-01T20:06:24.043Z,7.90
2023-04-01T20:09:09.130Z,7.80
2023-04-01T20:11:49.948Z,7.80
2023-04-01T20:14:44.285Z,7.80
2023-04-01T20:17:19.873Z,7.70
2023-04-01T20:20:04.430Z,7.70
2023-04-01T20:22:36.082Z,7.60
2023-04-01T20:25:27.359Z,7.60
2023-04-01T20:28:17.935Z,7.50
2023-04-01T20:30:47.510Z,7.50
2023-04-01T20:33:16.887Z,7.50
2023-04-01T20:36:12.144Z,7.50
2023-04-01T20:39:03.572Z,7.50
2023-04-01T20:42:13.349Z,7.50
2023-04-01T20:45:09.720Z,7.60
2023-04-01T20:48:14.138Z,7.60
2023-04-01T20:50:52.709Z,7.60
2023-04-01T20:53:29.031Z,7.60
2023-04-01T20:56:17.533Z,7.50
2023-04-01T20:59:09.112Z,7.60
2023-04-01T21:02:00.222Z,7.60
2023-04-01T21:04:41.767Z,7.60
2023-04-01T21:07:33.244Z,7.60
2023-04-01T21:10:18.629Z,7.50
2023-04-01T21:13:11.359Z,7.40
2023-04-01T21:16:13.004Z,7.50
2023-04-01T21:19:06.098Z,7.50
2023-04-01T21:21:53.464Z,7.50
2023-04-01T21:24:41.408Z,7.50
2023-04-01T21:27:50.408Z,7.50
2023-04-01T21:30:22.866Z,7.40
2023-04-01T21:33:23.568Z,7.40
2023-04-01T21:36:05.211Z,7.50
2023-04-01T21:38:44.844Z,7.50
2023-04-01T21:41:36.368Z,7.50
2023-04-01T21:44:25.606Z,7.60
2023-04-01T21:47:41.085Z,7.60
2023-04-01T21:50:39.091Z,7.60
2023-04-01T21:53:27.520Z,7.60
2023-04-01T21:56:21.563Z,7.60
2023-04-01T21:59:06.702Z,7.60
2023-04-01T22:02:01.394Z,7.60
2023-04-01T22:04:50.527Z,7.60
2023-04-01T22:07:20.860Z,7.60
2023-04-01T22:10:01.464Z,7.60
2023-04-01T22:12:55.947Z,7.60
2023-04-01T22:15:30.487Z,7.60
2023-04-01T22:18:07.156Z,7.60
2023-04-01T22:20:49.625Z,7.60
2023-04-01T22:23:19.181Z,7.70
2023-04-01T22:26:07.968Z,7.60
2023-04-01T22:28:38.938Z,7.60
2023-04-01T22:31:08.928Z,7.60
2023-04-01T22:34:03.448Z,7.60
2023-04-01T22:36:48.846Z,7.60
2023-04-01T22:39:42.113Z,7.70
2023-04-01T22:42:11.478Z,7.60
2023-04-01T22:44:44.205Z,7.60
2023-04-01T22:47:39.555Z,7.70
2023-04-01T22:50:29.662Z,7.70
2023-04-01T22:53:35.052Z,7.70
2023-04-01T22:56:08.001Z,7.70
2023-04-01T22:58:41.811Z,7.80
2023-04-01T23:01:12.021Z,7.70
2023-04-01T23:03:44.850Z,7.70
2023-04-01T23:06:20.105Z,7.60
2023-04-01T23:08:47.175Z,7.70
2023-04-01T23:11:28.984Z,7.70
2023-04-01T23:14:21.384Z,7.70
2023-04-01T23:17:23.643Z,7.70
2023-04-01T23:20:07.768Z,7.60
2023-04-01T23:23:01.605Z,7.60
2023-04-01T23:25:44.346Z,7.60
2023-04-01T23:28:31.078Z,7.60
2023-04-01T23:30:57.664Z,7.60
2023-04-01T23:33:27.571Z,7.60
2023-04-01T23:36:12.740Z,7.60
2023-04-01T23:38:45.230Z,7.60
2023-04-01T23:41:25.630Z,7.50
2023-04-01T23:43:59.162Z,7.50
2023-04-01T23:46:26.385Z,7.60
2023-04-01T23:48:54.279Z,7.60
2023-04-01T23:51:27.423Z,7.60
2023-04-01T23:54:24.577Z,7.60
2023-04-01T23:56:56.934Z,7.50
2023-04-01T23:59:36.994Z,7.50
